sensor_id;sensor_type;location;lat;lon;timestamp;temperature;humidity
42019;DHT22;27703;51.980;5.848;2022-12-16T00:00:35;-0.70;99.90
42019;DHT22;27703;51.980;5.848;2022-12-16T00:03:01;-0.70;99.90
42019;DHT22;27703;51.980;5.848;2022-12-16T00:05:27;-0.70;99.90
42019;DHT22;27703;51.980;5.848;2022-12-16T00:07:53;-0.70;99.90
42019;DHT22;27703;51.980;5.848;2022-12-16T00:10:20;-0.70;99.90
42019;DHT22;27703;51.980;5.848;2022-12-16T00:12:45;-0.70;99.90
42019;DHT22;27703;51.980;5.848;2022-12-16T00:15:11;-0.70;99.90
42019;DHT22;27703;51.980;5.848;2022-12-16T00:17:36;-0.70;99.90
42019;DHT22;27703;51.980;5.848;2022-12-16T00:20:04;-0.70;99.90
42019;DHT22;27703;51.980;5.848;2022-12-16T00:22:30;-0.70;99.90
42019;DHT22;27703;51.980;5.848;2022-12-16T00:24:56;-0.60;99.90
42019;DHT22;27703;51.980;5.848;2022-12-16T00:27:21;-0.60;99.90
42019;DHT22;27703;51.980;5.848;2022-12-16T00:29:47;-0.70;99.90
42019;DHT22;27703;51.980;5.848;2022-12-16T00:32:13;-0.70;99.90
42019;DHT22;27703;51.980;5.848;2022-12-16T00:34:38;-0.70;99.90
42019;DHT22;27703;51.980;5.848;2022-12-16T00:37:04;-0.70;99.90
42019;DHT22;27703;51.980;5.848;2022-12-16T00:39:29;-0.60;99.90
42019;DHT22;27703;51.980;5.848;2022-12-16T00:41:55;-0.60;99.90
42019;DHT22;27703;51.980;5.848;2022-12-16T00:44:20;-0.70;99.90
42019;DHT22;27703;51.980;5.848;2022-12-16T00:46:46;-0.70;99.90
42019;DHT22;27703;51.980;5.848;2022-12-16T00:49:11;-0.70;99.90
42019;DHT22;27703;51.980;5.848;2022-12-16T00:51:37;-0.60;99.90
42019;DHT22;27703;51.980;5.848;2022-12-16T00:54:02;-0.60;99.90
42019;DHT22;27703;51.980;5.848;2022-12-16T00:56:28;-0.60;99.90
42019;DHT22;27703;51.980;5.848;2022-12-16T00:58:53;-0.70;99.90
42019;DHT22;27703;51.980;5.848;2022-12-16T01:01:19;-0.70;99.90
42019;DHT22;27703;51.980;5.848;2022-12-16T01:03:45;-0.70;99.90
42019;DHT22;27703;51.980;5.848;2022-12-16T01:06:15;-0.70;99.90
42019;DHT22;27703;51.980;5.848;2022-12-16T01:08:41;-0.70;99.90
42019;DHT22;27703;51.980;5.848;2022-12-16T01:11:13;-0.70;99.90
42019;DHT22;27703;51.980;5.848;2022-12-16T01:13:39;-0.70;99.90
42019;DHT22;27703;51.980;5.848;2022-12-16T01:16:05;-0.70;99.90
42019;DHT22;27703;51.980;5.848;2022-12-16T01:18:30;-0.80;99.90
42019;DHT22;27703;51.980;5.848;2022-12-16T01:21:02;-0.80;99.90
42019;DHT22;27703;51.980;5.848;2022-12-16T01:23:28;-0.80;99.90
42019;DHT22;27703;51.980;5.848;2022-12-16T01:25:57;-0.80;99.90
42019;DHT22;27703;51.980;5.848;2022-12-16T01:28:23;-0.80;99.90
42019;DHT22;27703;51.980;5.848;2022-12-16T01:30:48;-0.80;99.90
42019;DHT22;27703;51.980;5.848;2022-12-16T01:33:18;-0.80;99.90
42019;DHT22;27703;51.980;5.848;2022-12-16T01:35:44;-0.80;99.90
42019;DHT22;27703;51.980;5.848;2022-12-16T01:38:10;-0.80;99.90
42019;DHT22;27703;51.980;5.848;2022-12-16T01:40:35;-0.80;99.90
42019;DHT22;27703;51.980;5.848;2022-12-16T01:43:01;-0.80;99.90
42019;DHT22;27703;51.980;5.848;2022-12-16T01:45:33;-0.70;99.90
42019;DHT22;27703;51.980;5.848;2022-12-16T01:50:39;-0.60;99.90
42019;DHT22;27703;51.980;5.848;2022-12-16T01:53:07;-0.60;99.90
42019;DHT22;27703;51.980;5.848;2022-12-16T01:55:37;-0.60;99.90
42019;DHT22;27703;51.980;5.848;2022-12-16T01:58:10;-0.60;99.90
42019;DHT22;27703;51.980;5.848;2022-12-16T02:00:38;-0.60;99.90
42019;DHT22;27703;51.980;5.848;2022-12-16T02:03:05;-0.60;99.90
42019;DHT22;27703;51.980;5.848;2022-12-16T02:05:33;-0.60;99.90
42019;DHT22;27703;51.980;5.848;2022-12-16T02:16:13;-0.50;99.90
42019;DHT22;27703;51.980;5.848;2022-12-16T02:18:58;-0.50;99.90
42019;DHT22;27703;51.980;5.848;2022-12-16T02:21:46;-0.50;99.90
42019;DHT22;27703;51.980;5.848;2022-12-16T02:25:13;-0.50;99.90
42019;DHT22;27703;51.980;5.848;2022-12-16T02:27:55;-0.50;99.90
42019;DHT22;27703;51.980;5.848;2022-12-16T02:33:45;-0.50;99.90
42019;DHT22;27703;51.980;5.848;2022-12-16T02:38:55;-0.50;99.90
42019;DHT22;27703;51.980;5.848;2022-12-16T02:44:07;-0.50;99.90
42019;DHT22;27703;51.980;5.848;2022-12-16T02:46:39;-0.50;99.90
42019;DHT22;27703;51.980;5.848;2022-12-16T02:51:50;-0.40;99.90
42019;DHT22;27703;51.980;5.848;2022-12-16T02:54:16;-0.50;99.90
42019;DHT22;27703;51.980;5.848;2022-12-16T02:57:03;-0.40;99.90
42019;DHT22;27703;51.980;5.848;2022-12-16T02:59:44;-0.30;99.90
42019;DHT22;27703;51.980;5.848;2022-12-16T03:02:33;-0.30;99.90
42019;DHT22;27703;51.980;5.848;2022-12-16T03:07:51;-0.30;99.90
42019;DHT22;27703;51.980;5.848;2022-12-16T03:10:20;-0.30;99.90
42019;DHT22;27703;51.980;5.848;2022-12-16T03:12:49;-0.20;99.90
42019;DHT22;27703;51.980;5.848;2022-12-16T03:15:17;-0.20;99.90
42019;DHT22;27703;51.980;5.848;2022-12-16T03:17:45;-0.20;99.90
42019;DHT22;27703;51.980;5.848;2022-12-16T03:20:30;-0.20;99.90
42019;DHT22;27703;51.980;5.848;2022-12-16T03:23:00;-0.20;99.90
42019;DHT22;27703;51.980;5.848;2022-12-16T03:25:27;-0.20;99.90
42019;DHT22;27703;51.980;5.848;2022-12-16T03:28:00;-0.30;99.90
42019;DHT22;27703;51.980;5.848;2022-12-16T03:30:32;-0.30;99.90
42019;DHT22;27703;51.980;5.848;2022-12-16T03:33:03;-0.30;99.90
42019;DHT22;27703;51.980;5.848;2022-12-16T03:36:06;-0.30;99.90
42019;DHT22;27703;51.980;5.848;2022-12-16T03:38:34;-0.30;99.90
42019;DHT22;27703;51.980;5.848;2022-12-16T03:41:02;-0.30;99.90
42019;DHT22;27703;51.980;5.848;2022-12-16T03:43:28;-0.30;99.90
42019;DHT22;27703;51.980;5.848;2022-12-16T03:45:57;-0.30;99.90
42019;DHT22;27703;51.980;5.848;2022-12-16T03:48:24;-0.30;99.90
42019;DHT22;27703;51.980;5.848;2022-12-16T03:50:50;-0.30;99.90
42019;DHT22;27703;51.980;5.848;2022-12-16T03:53:16;-0.30;99.90
42019;DHT22;27703;51.980;5.848;2022-12-16T03:55:41;-0.40;99.90
42019;DHT22;27703;51.980;5.848;2022-12-16T03:58:07;-0.40;99.90
42019;DHT22;27703;51.980;5.848;2022-12-16T04:00:33;-0.40;99.90
42019;DHT22;27703;51.980;5.848;2022-12-16T04:02:58;-0.40;99.90
42019;DHT22;27703;51.980;5.848;2022-12-16T04:05:24;-0.40;99.90
42019;DHT22;27703;51.980;5.848;2022-12-16T04:07:49;-0.30;99.90
42019;DHT22;27703;51.980;5.848;2022-12-16T04:10:15;-0.40;99.90
42019;DHT22;27703;51.980;5.848;2022-12-16T04:12:41;-0.40;99.90
42019;DHT22;27703;51.980;5.848;2022-12-16T04:15:25;-0.40;99.90
42019;DHT22;27703;51.980;5.848;2022-12-16T04:18:15;-0.40;99.90
42019;DHT22;27703;51.980;5.848;2022-12-16T04:21:01;-0.40;99.90
42019;DHT22;27703;51.980;5.848;2022-12-16T04:23:51;-0.40;99.90
42019;DHT22;27703;51.980;5.848;2022-12-16T04:26:37;-0.40;99.90
42019;DHT22;27703;51.980;5.848;2022-12-16T04:29:22;-0.40;99.90
42019;DHT22;27703;51.980;5.848;2022-12-16T04:31:48;-0.30;99.90
42019;DHT22;27703;51.980;5.848;2022-12-16T04:34:14;-0.30;99.90
42019;DHT22;27703;51.980;5.848;2022-12-16T04:36:54;-0.30;99.90
42019;DHT22;27703;51.980;5.848;2022-12-16T04:39:38;-0.20;99.90
42019;DHT22;27703;51.980;5.848;2022-12-16T04:42:22;-0.20;99.90
42019;DHT22;27703;51.980;5.848;2022-12-16T04:45:06;-0.20;99.90
42019;DHT22;27703;51.980;5.848;2022-12-16T04:47:55;-0.20;99.90
42019;DHT22;27703;51.980;5.848;2022-12-16T04:50:39;-0.20;99.90
42019;DHT22;27703;51.980;5.848;2022-12-16T04:53:24;-0.20;99.90
42019;DHT22;27703;51.980;5.848;2022-12-16T04:56:08;-0.20;99.90
42019;DHT22;27703;51.980;5.848;2022-12-16T04:58:52;-0.30;99.90
42019;DHT22;27703;51.980;5.848;2022-12-16T05:01:36;-0.20;99.90
42019;DHT22;27703;51.980;5.848;2022-12-16T05:04:20;-0.20;99.90
42019;DHT22;27703;51.980;5.848;2022-12-16T05:07:05;-0.20;99.90
42019;DHT22;27703;51.980;5.848;2022-12-16T05:09:49;-0.20;99.90
42019;DHT22;27703;51.980;5.848;2022-12-16T05:12:33;-0.20;99.90
42019;DHT22;27703;51.980;5.848;2022-12-16T05:15:17;-0.10;99.90
42019;DHT22;27703;51.980;5.848;2022-12-16T05:18:12;-0.10;99.90
42019;DHT22;27703;51.980;5.848;2022-12-16T05:20:58;-0.10;99.90
42019;DHT22;27703;51.980;5.848;2022-12-16T05:23:43;-0.20;99.90
42019;DHT22;27703;51.980;5.848;2022-12-16T05:26:27;-0.20;99.90
42019;DHT22;27703;51.980;5.848;2022-12-16T05:29:11;-0.20;99.90
42019;DHT22;27703;51.980;5.848;2022-12-16T05:31:55;-0.20;99.90
42019;DHT22;27703;51.980;5.848;2022-12-16T05:34:39;-0.30;99.90
42019;DHT22;27703;51.980;5.848;2022-12-16T05:37:23;-0.30;99.90
42019;DHT22;27703;51.980;5.848;2022-12-16T05:40:09;-0.30;99.90
42019;DHT22;27703;51.980;5.848;2022-12-16T05:42:54;-0.30;99.90
42019;DHT22;27703;51.980;5.848;2022-12-16T05:45:39;-0.30;99.90
42019;DHT22;27703;51.980;5.848;2022-12-16T05:48:23;-0.40;99.90
42019;DHT22;27703;51.980;5.848;2022-12-16T05:51:07;-0.40;99.90
42019;DHT22;27703;51.980;5.848;2022-12-16T05:53:51;-0.40;99.90
42019;DHT22;27703;51.980;5.848;2022-12-16T05:56:35;-0.50;99.90
42019;DHT22;27703;51.980;5.848;2022-12-16T05:59:19;-0.50;99.90
42019;DHT22;27703;51.980;5.848;2022-12-16T06:02:03;-0.50;99.90
42019;DHT22;27703;51.980;5.848;2022-12-16T06:04:47;-0.50;99.90
42019;DHT22;27703;51.980;5.848;2022-12-16T06:07:36;-0.60;99.90
42019;DHT22;27703;51.980;5.848;2022-12-16T06:10:20;-0.60;99.90
42019;DHT22;27703;51.980;5.848;2022-12-16T06:13:04;-0.60;99.90
42019;DHT22;27703;51.980;5.848;2022-12-16T06:15:48;-0.70;99.90
42019;DHT22;27703;51.980;5.848;2022-12-16T06:18:33;-0.70;99.90
42019;DHT22;27703;51.980;5.848;2022-12-16T06:21:17;-0.70;99.90
42019;DHT22;27703;51.980;5.848;2022-12-16T06:24:01;-0.70;99.90
42019;DHT22;27703;51.980;5.848;2022-12-16T06:26:45;-0.70;99.90
42019;DHT22;27703;51.980;5.848;2022-12-16T06:29:30;-0.80;99.90
42019;DHT22;27703;51.980;5.848;2022-12-16T06:32:14;-0.80;99.90
42019;DHT22;27703;51.980;5.848;2022-12-16T06:34:58;-0.80;99.90
42019;DHT22;27703;51.980;5.848;2022-12-16T06:37:46;-0.80;99.90
42019;DHT22;27703;51.980;5.848;2022-12-16T06:40:30;-0.90;99.90
42019;DHT22;27703;51.980;5.848;2022-12-16T06:43:14;-0.90;99.90
42019;DHT22;27703;51.980;5.848;2022-12-16T06:45:58;-0.90;99.90
42019;DHT22;27703;51.980;5.848;2022-12-16T06:48:42;-0.90;99.90
42019;DHT22;27703;51.980;5.848;2022-12-16T06:51:26;-0.90;99.90
42019;DHT22;27703;51.980;5.848;2022-12-16T06:54:10;-0.90;99.90
42019;DHT22;27703;51.980;5.848;2022-12-16T06:56:55;-0.90;99.90
42019;DHT22;27703;51.980;5.848;2022-12-16T06:59:39;-0.80;99.90
42019;DHT22;27703;51.980;5.848;2022-12-16T07:02:23;-0.80;99.90
42019;DHT22;27703;51.980;5.848;2022-12-16T07:05:21;-0.80;99.90
42019;DHT22;27703;51.980;5.848;2022-12-16T07:08:05;-0.80;99.90
42019;DHT22;27703;51.980;5.848;2022-12-16T07:10:49;-0.80;99.90
42019;DHT22;27703;51.980;5.848;2022-12-16T07:13:33;-0.80;99.90
42019;DHT22;27703;51.980;5.848;2022-12-16T07:16:17;-0.80;99.90
42019;DHT22;27703;51.980;5.848;2022-12-16T07:19:01;-0.80;99.90
42019;DHT22;27703;51.980;5.848;2022-12-16T07:21:45;-0.80;99.90
42019;DHT22;27703;51.980;5.848;2022-12-16T07:24:30;-0.80;99.90
42019;DHT22;27703;51.980;5.848;2022-12-16T07:27:14;-0.80;99.90
42019;DHT22;27703;51.980;5.848;2022-12-16T07:29:58;-0.90;99.90
42019;DHT22;27703;51.980;5.848;2022-12-16T07:32:42;-0.90;99.90
42019;DHT22;27703;51.980;5.848;2022-12-16T07:35:26;-0.90;99.90
42019;DHT22;27703;51.980;5.848;2022-12-16T07:38:10;-0.90;99.90
42019;DHT22;27703;51.980;5.848;2022-12-16T07:40:54;-1.00;99.90
42019;DHT22;27703;51.980;5.848;2022-12-16T07:43:38;-0.90;99.90
42019;DHT22;27703;51.980;5.848;2022-12-16T07:46:22;-1.00;99.90
42019;DHT22;27703;51.980;5.848;2022-12-16T07:49:23;-1.00;99.90
42019;DHT22;27703;51.980;5.848;2022-12-16T07:52:07;-1.00;99.90
42019;DHT22;27703;51.980;5.848;2022-12-16T07:54:53;-1.00;99.90
42019;DHT22;27703;51.980;5.848;2022-12-16T07:57:37;-1.00;99.90
42019;DHT22;27703;51.980;5.848;2022-12-16T08:00:32;-1.00;99.90
42019;DHT22;27703;51.980;5.848;2022-12-16T08:03:17;-1.00;99.90
42019;DHT22;27703;51.980;5.848;2022-12-16T08:06:01;-1.00;99.90
42019;DHT22;27703;51.980;5.848;2022-12-16T08:08:45;-1.00;99.90
42019;DHT22;27703;51.980;5.848;2022-12-16T08:11:29;-1.00;99.90
42019;DHT22;27703;51.980;5.848;2022-12-16T08:14:13;-0.90;99.90
42019;DHT22;27703;51.980;5.848;2022-12-16T08:16:57;-0.90;99.90
42019;DHT22;27703;51.980;5.848;2022-12-16T08:19:41;-0.80;99.90
42019;DHT22;27703;51.980;5.848;2022-12-16T08:22:25;-0.70;99.90
42019;DHT22;27703;51.980;5.848;2022-12-16T08:25:09;-0.70;99.90
42019;DHT22;27703;51.980;5.848;2022-12-16T08:28:13;-0.60;99.90
42019;DHT22;27703;51.980;5.848;2022-12-16T08:30:57;-0.50;99.90
42019;DHT22;27703;51.980;5.848;2022-12-16T08:33:41;-0.50;99.90
42019;DHT22;27703;51.980;5.848;2022-12-16T08:36:25;-0.50;99.90
42019;DHT22;27703;51.980;5.848;2022-12-16T08:39:09;-0.50;99.90
42019;DHT22;27703;51.980;5.848;2022-12-16T08:41:53;-0.40;99.90
42019;DHT22;27703;51.980;5.848;2022-12-16T08:44:37;-0.40;99.90
42019;DHT22;27703;51.980;5.848;2022-12-16T08:47:21;-0.40;99.90
42019;DHT22;27703;51.980;5.848;2022-12-16T08:50:06;-0.40;99.90
42019;DHT22;27703;51.980;5.848;2022-12-16T08:52:50;-0.40;99.90
42019;DHT22;27703;51.980;5.848;2022-12-16T08:55:34;-0.40;99.90
42019;DHT22;27703;51.980;5.848;2022-12-16T08:58:18;-0.40;99.90
42019;DHT22;27703;51.980;5.848;2022-12-16T09:01:02;-0.40;99.90
42019;DHT22;27703;51.980;5.848;2022-12-16T09:03:46;-0.40;99.90
42019;DHT22;27703;51.980;5.848;2022-12-16T09:06:30;-0.30;99.90
42019;DHT22;27703;51.980;5.848;2022-12-16T09:09:14;-0.30;99.90
42019;DHT22;27703;51.980;5.848;2022-12-16T09:11:58;-0.30;99.90
42019;DHT22;27703;51.980;5.848;2022-12-16T09:14:42;-0.30;99.90
42019;DHT22;27703;51.980;5.848;2022-12-16T09:17:26;-0.30;99.90
42019;DHT22;27703;51.980;5.848;2022-12-16T09:20:10;-0.20;99.90
42019;DHT22;27703;51.980;5.848;2022-12-16T09:22:54;-0.20;99.90
42019;DHT22;27703;51.980;5.848;2022-12-16T09:25:39;-0.20;99.90
42019;DHT22;27703;51.980;5.848;2022-12-16T09:28:23;-0.20;99.90
42019;DHT22;27703;51.980;5.848;2022-12-16T09:31:07;-0.10;99.90
42019;DHT22;27703;51.980;5.848;2022-12-16T09:33:51;-0.10;99.90
42019;DHT22;27703;51.980;5.848;2022-12-16T09:36:35;-0.10;99.90
42019;DHT22;27703;51.980;5.848;2022-12-16T09:39:19;0.00;99.90
42019;DHT22;27703;51.980;5.848;2022-12-16T09:51:36;0.10;99.90
42019;DHT22;27703;51.980;5.848;2022-12-16T09:54:22;0.10;99.90
42019;DHT22;27703;51.980;5.848;2022-12-16T09:57:08;0.10;99.90
42019;DHT22;27703;51.980;5.848;2022-12-16T09:59:57;0.10;99.90
42019;DHT22;27703;51.980;5.848;2022-12-16T10:02:46;0.20;99.90
42019;DHT22;27703;51.980;5.848;2022-12-16T10:05:53;0.30;99.90
42019;DHT22;27703;51.980;5.848;2022-12-16T10:08:58;0.40;99.90
42019;DHT22;27703;51.980;5.848;2022-12-16T10:12:00;0.60;99.90
42019;DHT22;27703;51.980;5.848;2022-12-16T10:15:36;0.70;99.90
42019;DHT22;27703;51.980;5.848;2022-12-16T10:18:39;0.80;99.90
42019;DHT22;27703;51.980;5.848;2022-12-16T10:21:37;0.80;99.90
42019;DHT22;27703;51.980;5.848;2022-12-16T10:24:51;0.90;99.90
42019;DHT22;27703;51.980;5.848;2022-12-16T10:27:46;0.90;99.90
42019;DHT22;27703;51.980;5.848;2022-12-16T10:30:32;0.90;99.90
42019;DHT22;27703;51.980;5.848;2022-12-16T10:33:18;0.90;99.90
42019;DHT22;27703;51.980;5.848;2022-12-16T10:36:04;0.90;99.90
42019;DHT22;27703;51.980;5.848;2022-12-16T10:38:55;1.00;99.90
42019;DHT22;27703;51.980;5.848;2022-12-16T10:41:41;1.10;99.90
42019;DHT22;27703;51.980;5.848;2022-12-16T10:47:28;1.10;99.90
42019;DHT22;27703;51.980;5.848;2022-12-16T10:50:13;1.20;99.90
42019;DHT22;27703;51.980;5.848;2022-12-16T10:53:04;1.30;99.90
42019;DHT22;27703;51.980;5.848;2022-12-16T10:58:58;1.50;99.90
42019;DHT22;27703;51.980;5.848;2022-12-16T11:01:54;1.40;99.90
42019;DHT22;27703;51.980;5.848;2022-12-16T11:04:39;1.40;99.90
42019;DHT22;27703;51.980;5.848;2022-12-16T11:07:30;1.50;99.90
42019;DHT22;27703;51.980;5.848;2022-12-16T11:13:14;1.50;99.90
42019;DHT22;27703;51.980;5.848;2022-12-16T11:16:10;1.50;99.90
42019;DHT22;27703;51.980;5.848;2022-12-16T11:18:54;1.60;99.90
42019;DHT22;27703;51.980;5.848;2022-12-16T11:21:38;1.50;99.90
42019;DHT22;27703;51.980;5.848;2022-12-16T11:24:22;1.50;99.90
42019;DHT22;27703;51.980;5.848;2022-12-16T11:27:16;1.60;99.90
42019;DHT22;27703;51.980;5.848;2022-12-16T11:30:16;1.60;99.90
42019;DHT22;27703;51.980;5.848;2022-12-16T11:33:19;1.60;99.90
42019;DHT22;27703;51.980;5.848;2022-12-16T11:38:56;1.60;99.90
42019;DHT22;27703;51.980;5.848;2022-12-16T11:41:47;1.60;99.90
42019;DHT22;27703;51.980;5.848;2022-12-16T11:44:39;1.70;99.90
42019;DHT22;27703;51.980;5.848;2022-12-16T11:47:40;1.80;99.90
42019;DHT22;27703;51.980;5.848;2022-12-16T11:50:53;1.80;99.90
42019;DHT22;27703;51.980;5.848;2022-12-16T11:53:47;1.90;99.90
42019;DHT22;27703;51.980;5.848;2022-12-16T11:56:37;1.90;99.90
42019;DHT22;27703;51.980;5.848;2022-12-16T11:59:47;1.90;99.90
42019;DHT22;27703;51.980;5.848;2022-12-16T12:11:33;2.00;99.90
42019;DHT22;27703;51.980;5.848;2022-12-16T12:14:51;1.90;99.90
42019;DHT22;27703;51.980;5.848;2022-12-16T12:17:44;1.90;99.90
42019;DHT22;27703;51.980;5.848;2022-12-16T12:20:49;2.00;99.90
42019;DHT22;27703;51.980;5.848;2022-12-16T12:26:43;1.90;99.90
42019;DHT22;27703;51.980;5.848;2022-12-16T12:29:50;1.90;99.90
42019;DHT22;27703;51.980;5.848;2022-12-16T12:41:56;1.90;99.90
42019;DHT22;27703;51.980;5.848;2022-12-16T12:44:54;1.90;99.90
42019;DHT22;27703;51.980;5.848;2022-12-16T12:47:50;1.90;99.90
42019;DHT22;27703;51.980;5.848;2022-12-16T12:50:52;1.90;99.90
42019;DHT22;27703;51.980;5.848;2022-12-16T12:54:04;1.90;99.90
42019;DHT22;27703;51.980;5.848;2022-12-16T12:56:56;1.90;99.90
42019;DHT22;27703;51.980;5.848;2022-12-16T13:00:03;1.90;99.90
42019;DHT22;27703;51.980;5.848;2022-12-16T13:06:09;1.80;99.90
42019;DHT22;27703;51.980;5.848;2022-12-16T13:08:57;1.80;99.90
42019;DHT22;27703;51.980;5.848;2022-12-16T13:14:55;1.90;99.90
42019;DHT22;27703;51.980;5.848;2022-12-16T13:20:45;1.90;99.90
42019;DHT22;27703;51.980;5.848;2022-12-16T13:26:21;1.80;99.90
42019;DHT22;27703;51.980;5.848;2022-12-16T13:32:19;1.80;99.90
42019;DHT22;27703;51.980;5.848;2022-12-16T13:38:01;1.90;99.90
42019;DHT22;27703;51.980;5.848;2022-12-16T13:41:04;1.90;99.90
42019;DHT22;27703;51.980;5.848;2022-12-16T13:43:57;1.90;99.90
42019;DHT22;27703;51.980;5.848;2022-12-16T13:46:50;1.90;99.90
42019;DHT22;27703;51.980;5.848;2022-12-16T13:58:36;1.80;99.90
42019;DHT22;27703;51.980;5.848;2022-12-16T14:01:36;1.80;99.90
42019;DHT22;27703;51.980;5.848;2022-12-16T14:04:36;1.90;99.90
42019;DHT22;27703;51.980;5.848;2022-12-16T14:07:23;1.80;99.90
42019;DHT22;27703;51.980;5.848;2022-12-16T14:10:29;1.80;99.90
42019;DHT22;27703;51.980;5.848;2022-12-16T14:19:53;1.80;99.90
42019;DHT22;27703;51.980;5.848;2022-12-16T14:22:51;1.80;99.90
42019;DHT22;27703;51.980;5.848;2022-12-16T14:25:37;1.80;99.90
42019;DHT22;27703;51.980;5.848;2022-12-16T14:28:30;1.80;99.90
42019;DHT22;27703;51.980;5.848;2022-12-16T14:31:25;1.80;99.90
42019;DHT22;27703;51.980;5.848;2022-12-16T14:34:30;1.80;99.90
42019;DHT22;27703;51.980;5.848;2022-12-16T14:37:17;1.80;99.90
42019;DHT22;27703;51.980;5.848;2022-12-16T14:40:17;1.80;99.90
42019;DHT22;27703;51.980;5.848;2022-12-16T14:43:02;1.80;99.90
42019;DHT22;27703;51.980;5.848;2022-12-16T14:45:48;1.80;99.90
42019;DHT22;27703;51.980;5.848;2022-12-16T14:48:35;1.80;99.90
42019;DHT22;27703;51.980;5.848;2022-12-16T14:51:26;1.80;99.90
42019;DHT22;27703;51.980;5.848;2022-12-16T14:54:19;1.80;99.90
42019;DHT22;27703;51.980;5.848;2022-12-16T14:57:09;1.80;99.90
42019;DHT22;27703;51.980;5.848;2022-12-16T15:03:04;1.80;99.90
42019;DHT22;27703;51.980;5.848;2022-12-16T15:05:51;1.80;99.90
42019;DHT22;27703;51.980;5.848;2022-12-16T15:08:46;1.80;99.90
42019;DHT22;27703;51.980;5.848;2022-12-16T15:11:33;1.90;99.90
42019;DHT22;27703;51.980;5.848;2022-12-16T15:14:25;1.80;99.90
42019;DHT22;27703;51.980;5.848;2022-12-16T15:17:22;1.80;99.90
42019;DHT22;27703;51.980;5.848;2022-12-16T15:20:17;1.80;99.90
42019;DHT22;27703;51.980;5.848;2022-12-16T15:23:01;1.80;99.90
42019;DHT22;27703;51.980;5.848;2022-12-16T15:25:51;1.80;99.90
42019;DHT22;27703;51.980;5.848;2022-12-16T15:28:44;1.80;99.90
42019;DHT22;27703;51.980;5.848;2022-12-16T15:31:34;1.80;99.90
42019;DHT22;27703;51.980;5.848;2022-12-16T15:37:03;1.80;99.90
42019;DHT22;27703;51.980;5.848;2022-12-16T15:39:47;1.80;99.90
42019;DHT22;27703;51.980;5.848;2022-12-16T15:42:32;1.80;99.90
42019;DHT22;27703;51.980;5.848;2022-12-16T15:45:30;1.80;99.90
42019;DHT22;27703;51.980;5.848;2022-12-16T15:48:30;1.80;99.90
42019;DHT22;27703;51.980;5.848;2022-12-16T15:51:20;1.80;99.90
42019;DHT22;27703;51.980;5.848;2022-12-16T15:54:04;1.80;99.90
42019;DHT22;27703;51.980;5.848;2022-12-16T15:56:48;1.80;99.90
42019;DHT22;27703;51.980;5.848;2022-12-16T15:59:37;1.80;99.90
42019;DHT22;27703;51.980;5.848;2022-12-16T16:02:34;1.80;99.90
42019;DHT22;27703;51.980;5.848;2022-12-16T16:05:21;1.80;99.90
42019;DHT22;27703;51.980;5.848;2022-12-16T16:08:06;1.80;99.90
42019;DHT22;27703;51.980;5.848;2022-12-16T16:10:52;1.80;99.90
42019;DHT22;27703;51.980;5.848;2022-12-16T16:13:36;1.80;99.90
42019;DHT22;27703;51.980;5.848;2022-12-16T16:16:20;1.80;99.90
42019;DHT22;27703;51.980;5.848;2022-12-16T16:19:13;1.80;99.90
42019;DHT22;27703;51.980;5.848;2022-12-16T16:21:59;1.80;99.90
42019;DHT22;27703;51.980;5.848;2022-12-16T16:24:43;1.80;99.90
42019;DHT22;27703;51.980;5.848;2022-12-16T16:27:27;1.80;99.90
42019;DHT22;27703;51.980;5.848;2022-12-16T16:30:12;1.80;99.90
42019;DHT22;27703;51.980;5.848;2022-12-16T16:32:56;1.80;99.90
42019;DHT22;27703;51.980;5.848;2022-12-16T16:35:40;1.80;99.90
42019;DHT22;27703;51.980;5.848;2022-12-16T16:38:24;1.80;99.90
42019;DHT22;27703;51.980;5.848;2022-12-16T16:41:19;1.80;99.90
42019;DHT22;27703;51.980;5.848;2022-12-16T16:44:03;1.80;99.90
42019;DHT22;27703;51.980;5.848;2022-12-16T16:46:47;1.80;99.90
42019;DHT22;27703;51.980;5.848;2022-12-16T16:49:38;1.80;99.90
42019;DHT22;27703;51.980;5.848;2022-12-16T16:52:24;1.80;99.90
42019;DHT22;27703;51.980;5.848;2022-12-16T16:55:29;1.80;99.90
42019;DHT22;27703;51.980;5.848;2022-12-16T16:58:25;1.80;99.90
42019;DHT22;27703;51.980;5.848;2022-12-16T17:01:14;1.80;99.90
42019;DHT22;27703;51.980;5.848;2022-12-16T17:03:59;1.90;99.90
42019;DHT22;27703;51.980;5.848;2022-12-16T17:06:43;1.80;99.90
42019;DHT22;27703;51.980;5.848;2022-12-16T17:09:27;1.90;99.90
42019;DHT22;27703;51.980;5.848;2022-12-16T17:12:24;1.90;99.90
42019;DHT22;27703;51.980;5.848;2022-12-16T17:15:21;1.90;99.90
42019;DHT22;27703;51.980;5.848;2022-12-16T17:18:06;1.90;99.90
42019;DHT22;27703;51.980;5.848;2022-12-16T17:20:51;1.90;99.90
42019;DHT22;27703;51.980;5.848;2022-12-16T17:23:36;1.90;99.90
42019;DHT22;27703;51.980;5.848;2022-12-16T17:26:20;1.90;99.90
42019;DHT22;27703;51.980;5.848;2022-12-16T17:29:05;1.80;99.90
42019;DHT22;27703;51.980;5.848;2022-12-16T17:31:49;1.80;99.90
42019;DHT22;27703;51.980;5.848;2022-12-16T17:34:33;1.90;99.90
42019;DHT22;27703;51.980;5.848;2022-12-16T17:37:17;1.90;99.90
42019;DHT22;27703;51.980;5.848;2022-12-16T17:40:01;1.90;99.90
42019;DHT22;27703;51.980;5.848;2022-12-16T17:42:45;1.90;99.90
42019;DHT22;27703;51.980;5.848;2022-12-16T17:45:29;1.90;99.90
42019;DHT22;27703;51.980;5.848;2022-12-16T17:48:13;1.90;99.90
42019;DHT22;27703;51.980;5.848;2022-12-16T17:51:00;1.90;99.90
42019;DHT22;27703;51.980;5.848;2022-12-16T17:53:45;1.90;99.90
42019;DHT22;27703;51.980;5.848;2022-12-16T17:56:29;1.90;99.90
42019;DHT22;27703;51.980;5.848;2022-12-16T17:59:13;1.90;99.90
42019;DHT22;27703;51.980;5.848;2022-12-16T18:01:57;1.90;99.90
42019;DHT22;27703;51.980;5.848;2022-12-16T18:04:41;1.90;99.90
42019;DHT22;27703;51.980;5.848;2022-12-16T18:07:25;1.90;99.90
42019;DHT22;27703;51.980;5.848;2022-12-16T18:10:09;1.90;99.90
42019;DHT22;27703;51.980;5.848;2022-12-16T18:12:54;1.90;99.90
42019;DHT22;27703;51.980;5.848;2022-12-16T18:15:39;1.90;99.90
42019;DHT22;27703;51.980;5.848;2022-12-16T18:18:23;1.90;99.90
42019;DHT22;27703;51.980;5.848;2022-12-16T18:21:09;1.90;99.90
42019;DHT22;27703;51.980;5.848;2022-12-16T18:23:53;1.90;99.90
42019;DHT22;27703;51.980;5.848;2022-12-16T18:26:37;1.90;99.90
42019;DHT22;27703;51.980;5.848;2022-12-16T18:29:21;1.90;99.90
42019;DHT22;27703;51.980;5.848;2022-12-16T18:32:05;1.90;99.90
42019;DHT22;27703;51.980;5.848;2022-12-16T18:34:49;1.90;99.90
42019;DHT22;27703;51.980;5.848;2022-12-16T18:37:33;1.90;99.90
42019;DHT22;27703;51.980;5.848;2022-12-16T18:40:17;1.90;99.90
42019;DHT22;27703;51.980;5.848;2022-12-16T18:43:01;1.90;99.90
42019;DHT22;27703;51.980;5.848;2022-12-16T18:45:52;1.90;99.90
42019;DHT22;27703;51.980;5.848;2022-12-16T18:48:37;1.90;99.90
42019;DHT22;27703;51.980;5.848;2022-12-16T18:51:21;1.90;99.90
42019;DHT22;27703;51.980;5.848;2022-12-16T18:54:05;1.90;99.90
42019;DHT22;27703;51.980;5.848;2022-12-16T18:56:49;1.90;99.90
42019;DHT22;27703;51.980;5.848;2022-12-16T18:59:33;1.90;99.90
42019;DHT22;27703;51.980;5.848;2022-12-16T19:02:17;1.90;99.90
42019;DHT22;27703;51.980;5.848;2022-12-16T19:05:01;1.90;99.90
42019;DHT22;27703;51.980;5.848;2022-12-16T19:07:45;1.90;99.90